Terminal Aerodrome Forecast
Issued by NWS

Home | Current Version | Previous Version | Text Only | Print | Product List | Glossary Off
Versions: 1 2 3 4 5 6 7 8 9 10 11 12 13 14 15 16 17 18

878
FTUS43 KTOP 230520
TAFFOE
TAF
KFOE 230520Z 2306/2406 31004KT 1 1/2SM BR OVC004
     FM231500 31004KT 6SM BR SCT002 BKN010
     FM231800 05005KT P6SM SCT020
     FM240300 06005KT P6SM BKN015=

USA.gov is the U.S. government's official web portal to all federal, state and local government web resources and services.